Time;durP1;ratioP1;P1;durP2;ratioP2;P2;SDS_P1;SDS_P2;PMS_P1;PMS_P2;Temp;Humidity;BMP_temperature;BMP_pressure;BME280_temperature;BME280_humidity;BME280_pressure;Samples;Min_cycle;Max_cycle;Signal;HPM_P1;HPM_P2
2023/01/22 00:00:57;;;;;;;;;36.25;28.50;;;;;3.39;59.01;102766.84;5053541;28;45355;-83
2023/01/22 00:03:23;;;;;;;;;43.50;31.50;;;;;3.41;58.89;102756.28;5059420;28;45452;-83
2023/01/22 00:05:51;;;;;;;;;36.25;32.75;;;;;3.36;58.94;102747.34;5056424;28;46545;-83
2023/01/22 00:08:17;;;;;;;;;42.25;36.25;;;;;3.42;59.30;102740.50;5051207;28;45838;-83
2023/01/22 00:10:48;;;;;;;;;28.75;24.50;;;;;3.36;59.37;102729.78;5052766;28;45240;-83
2023/01/22 00:13:14;;;;;;;;;35.25;30.00;;;;;3.36;58.78;102724.50;5043623;28;45387;-83
2023/01/22 00:15:39;;;;;;;;;40.00;29.75;;;;;3.42;59.04;102743.13;5051485;28;46209;-83
2023/01/22 00:18:04;;;;;;;;;38.25;28.50;;;;;3.50;59.07;102743.38;5060485;28;45194;-83
2023/01/22 00:20:30;;;;;;;;;43.00;33.75;;;;;3.52;59.04;102749.59;5042940;28;45243;-83
2023/01/22 00:22:55;;;;;;;;;44.00;34.50;;;;;3.51;58.71;102742.53;5052820;28;45480;-83
2023/01/22 00:25:21;;;;;;;;;36.75;32.75;;;;;3.47;58.82;102736.25;5051861;28;47986;-82
2023/01/22 00:27:46;;;;;;;;;27.75;27.75;;;;;3.55;58.52;102748.78;5048778;28;45282;-83
2023/01/22 00:30:11;;;;;;;;;35.50;30.00;;;;;3.52;58.04;102741.66;5050172;28;45442;-83
2023/01/22 00:32:37;;;;;;;;;34.75;31.75;;;;;3.74;58.10;102773.97;5045823;28;45489;-82
2023/01/22 00:35:02;;;;;;;;;47.25;32.00;;;;;3.52;58.36;102741.66;5050380;28;46244;-83
2023/01/22 00:37:28;;;;;;;;;36.75;30.50;;;;;3.67;58.64;102763.22;5054192;28;45205;-83
2023/01/22 00:39:53;;;;;;;;;43.75;35.00;;;;;3.39;58.93;102729.88;5052275;28;45275;-83
2023/01/22 00:42:18;;;;;;;;;38.75;33.50;;;;;3.49;58.74;102749.50;5038656;28;45252;-83
2023/01/22 00:44:44;;;;;;;;;37.50;33.50;;;;;3.48;57.89;102760.91;5044131;28;45566;-83
2023/01/22 00:47:09;;;;;;;;;38.25;36.25;;;;;3.16;58.49;102710.72;5042864;28;45428;-83
2023/01/22 00:49:35;;;;;;;;;36.00;31.25;;;;;3.38;58.92;102740.38;5044609;28;45383;-83
2023/01/22 00:52:00;;;;;;;;;48.50;38.75;;;;;3.31;58.84;102712.91;5060963;28;45456;-83
2023/01/22 00:54:25;;;;;;;;;43.75;35.00;;;;;3.49;58.88;102737.19;5049645;28;46394;-83
2023/01/22 00:56:51;;;;;;;;;38.75;35.50;;;;;3.53;59.26;102724.97;5060752;28;45510;-83
2023/01/22 00:59:16;;;;;;;;;43.75;37.50;;;;;3.79;58.64;102756.50;5073388;28;45310;-83
2023/01/22 01:01:42;;;;;;;;;32.00;27.00;;;;;3.63;58.79;102720.84;5041132;28;45708;-83
2023/01/22 01:04:07;;;;;;;;;46.75;38.25;;;;;3.62;58.41;102713.78;5040704;28;47210;-83
2023/01/22 01:06:32;;;;;;;;;42.00;34.00;;;;;3.68;58.91;102716.59;5060752;28;45345;-83
2023/01/22 01:08:58;;;;;;;;;34.00;27.50;;;;;3.50;57.90;102690.56;5061182;28;45426;-83
2023/01/22 01:11:25;;;;;;;;;37.25;27.25;;;;;3.43;57.58;102681.56;5042106;28;45366;-83
2023/01/22 01:13:51;;;;;;;;;36.50;35.50;;;;;3.67;58.00;102718.31;5053903;28;46875;-82
2023/01/22 01:16:19;;;;;;;;;30.25;26.50;;;;;3.84;58.16;102749.59;5047321;28;46347;-83
2023/01/22 01:18:45;;;;;;;;;40.75;34.25;;;;;3.69;58.10;102716.63;5045427;28;45531;-83
2023/01/22 01:21:11;;;;;;;;;44.00;36.50;;;;;3.76;58.45;102730.91;5041295;28;45388;-83
2023/01/22 01:23:37;;;;;;;;;32.25;30.50;;;;;3.43;57.98;102676.28;5052560;28;45732;-83
2023/01/22 01:26:10;;;;;;;;;37.00;32.75;;;;;3.77;58.00;102737.97;5055450;28;45309;-82
2023/01/22 01:28:37;;;;;;;;;37.25;34.50;;;;;3.67;58.26;102725.34;5056929;28;45353;-83
2023/01/22 01:31:07;;;;;;;;;45.75;34.25;;;;;3.70;58.29;102739.53;5061779;28;45535;-83
2023/01/22 01:33:33;;;;;;;;;40.50;34.75;;;;;3.74;58.32;102747.56;5060476;28;47606;-83
2023/01/22 01:36:04;;;;;;;;;44.25;35.75;;;;;3.60;57.71;102745.41;5051265;28;45286;-83
2023/01/22 01:38:31;;;;;;;;;38.00;31.75;;;;;3.61;57.90;102751.59;5049340;28;45361;-82
2023/01/22 01:40:56;;;;;;;;;35.50;29.75;;;;;3.68;57.93;102775.59;5041643;28;45493;-82
2023/01/22 01:43:22;;;;;;;;;36.50;32.50;;;;;3.69;58.16;102771.19;5057671;28;45984;-83
2023/01/22 01:45:47;;;;;;;;;35.50;29.00;;;;;3.43;57.97;102738.78;5051356;28;45290;-83
2023/01/22 01:48:35;;;;;;;;;36.00;28.75;;;;;3.67;57.88;102776.44;5055516;28;45263;-82
2023/01/22 01:51:06;;;;;;;;;41.25;31.75;;;;;3.48;57.90;102735.41;5040136;28;45553;-82
2023/01/22 01:53:35;;;;;;;;;31.25;26.50;;;;;3.61;57.96;102760.44;5048711;28;45805;-82
2023/01/22 01:56:04;;;;;;;;;35.00;26.50;;;;;3.52;58.12;102761.06;5042527;28;45590;-82
2023/01/22 01:58:39;;;;;;;;;39.75;34.50;;;;;3.44;57.82;102751.09;5051022;28;45291;-82
2023/01/22 02:01:11;;;;;;;;;34.75;29.50;;;;;3.51;58.31;102768.94;5051032;27;45398;-82
2023/01/22 02:03:38;;;;;;;;;39.75;33.50;;;;;3.40;57.89;102767.72;5049292;28;47982;-82
2023/01/22 02:06:04;;;;;;;;;40.50;34.00;;;;;3.22;58.33;102739.91;5057320;28;45729;-82
2023/01/22 02:08:33;;;;;;;;;40.00;33.50;;;;;3.02;57.75;102734.03;5039875;28;45337;-82
2023/01/22 02:10:59;;;;;;;;;35.25;28.00;;;;;2.85;57.83;102701.84;5058025;28;45442;-82
2023/01/22 02:13:28;;;;;;;;;36.50;32.25;;;;;2.99;58.25;102731.31;5060803;28;45771;-82
2023/01/22 02:15:54;;;;;;;;;42.00;35.75;;;;;3.10;58.47;102753.63;5043829;28;45927;-82
2023/01/22 02:18:20;;;;;;;;;43.25;36.75;;;;;2.91;59.33;102736.34;5079442;27;45409;-82
2023/01/22 02:20:54;;;;;;;;;46.00;33.25;;;;;3.03;58.56;102734.94;5043625;28;45208;-82
2023/01/22 02:23:19;;;;;;;;;47.75;39.25;;;;;3.02;58.48;102735.78;5066140;28;46102;-82
2023/01/22 02:25:45;;;;;;;;;37.50;34.00;;;;;2.85;58.30;102722.06;5051384;28;45323;-82
2023/01/22 02:28:10;;;;;;;;;40.25;32.25;;;;;2.66;58.56;102684.56;5046575;28;45599;-82
2023/01/22 02:30:36;;;;;;;;;39.25;37.50;;;;;2.77;58.83;102699.00;5059970;28;45580;-82
2023/01/22 02:33:01;;;;;;;;;51.75;42.50;;;;;2.88;59.16;102712.50;5049580;28;46685;-82
2023/01/22 02:35:27;;;;;;;;;42.00;31.50;;;;;2.95;58.63;102717.09;5054809;28;45418;-83
2023/01/22 02:37:52;;;;;;;;;46.75;37.25;;;;;2.92;59.11;102703.84;5049486;28;45250;-82
2023/01/22 02:40:17;;;;;;;;;39.00;32.00;;;;;3.21;58.79;102739.84;5052568;28;45571;-82
2023/01/22 02:42:43;;;;;;;;;51.00;41.25;;;;;3.15;58.61;102735.31;5047235;28;46767;-83
2023/01/22 02:45:09;;;;;;;;;50.00;39.00;;;;;2.88;58.83;102690.50;5040314;28;45309;-83
2023/01/22 02:47:35;;;;;;;;;36.25;34.75;;;;;3.29;59.38;102754.19;5050837;28;45592;-82
2023/01/22 02:50:01;;;;;;;;;43.75;38.00;;;;;3.14;59.19;102728.22;5060176;28;45239;-82
2023/01/22 02:52:27;;;;;;;;;43.75;38.50;;;;;3.30;58.93;102745.44;5059027;28;47376;-83
2023/01/22 02:54:52;;;;;;;;;41.50;39.00;;;;;2.98;58.86;102671.47;5049288;28;45420;-82
2023/01/22 02:57:17;;;;;;;;;45.50;41.25;;;;;3.09;58.57;102699.06;5058588;28;45291;-82
2023/01/22 02:59:43;;;;;;;;;53.75;40.50;;;;;3.15;58.60;102715.06;5043217;28;45539;-82
2023/01/22 03:02:08;;;;;;;;;51.75;41.25;;;;;3.35;58.27;102762.28;5040205;28;45504;-83
2023/01/22 03:04:33;;;;;;;;;44.00;39.75;;;;;3.19;58.40;102741.56;5051759;28;45375;-83
2023/01/22 03:07:02;;;;;;;;;45.50;37.00;;;;;3.01;58.48;102711.16;5049479;28;45345;-82
2023/01/22 03:09:28;;;;;;;;;44.50;42.25;;;;;2.99;58.96;102704.94;5058364;28;45436;-82
2023/01/22 03:11:54;;;;;;;;;36.00;31.50;;;;;3.17;58.68;102736.22;5057669;28;47071;-82
2023/01/22 03:22:34;;;;;;;;;49.75;39.25;;;;;3.06;59.08;102690.19;5054334;28;45263;-82
2023/01/22 03:25:00;;;;;;;;;51.00;42.75;;;;;3.27;58.35;102725.09;5045491;28;46848;-82
2023/01/22 03:27:27;;;;;;;;;51.25;43.00;;;;;3.11;58.64;102697.38;5051969;28;45439;-82
2023/01/22 03:29:52;;;;;;;;;50.00;40.00;;;;;3.48;58.19;102742.44;5048254;28;45330;-82
2023/01/22 03:32:18;;;;;;;;;46.50;35.25;;;;;3.11;57.92;102683.28;5057841;28;47982;-82
2023/01/22 03:34:43;;;;;;;;;52.50;41.25;;;;;3.10;57.93;102685.00;5048003;27;45375;-82
2023/01/22 03:37:11;;;;;;;;;49.75;40.50;;;;;3.17;57.88;102696.66;5053683;27;45349;-82
2023/01/22 03:39:37;;;;;;;;;32.50;30.75;;;;;3.33;57.73;102738.50;5051095;28;45401;-82
2023/01/22 03:42:03;;;;;;;;;50.25;43.25;;;;;3.03;58.39;102695.38;5057405;28;46937;-82
2023/01/22 03:44:28;;;;;;;;;58.00;45.00;;;;;3.22;58.24;102737.25;5054389;28;45711;-82
2023/01/22 03:46:54;;;;;;;;;51.25;41.25;;;;;3.00;58.87;102688.22;5051698;28;45431;-82
2023/01/22 03:49:19;;;;;;;;;48.25;41.25;;;;;3.01;58.07;102695.31;5051639;28;45271;-82
2023/01/22 03:51:45;;;;;;;;;49.25;38.75;;;;;3.04;58.25;102705.03;5053847;28;47314;-83
2023/01/22 03:54:12;;;;;;;;;49.50;37.75;;;;;3.23;58.55;102724.97;5049860;28;45910;-83
2023/01/22 03:56:39;;;;;;;;;53.00;44.75;;;;;3.01;58.36;102708.50;5039416;28;45382;-83
2023/01/22 03:59:04;;;;;;;;;49.50;41.50;;;;;3.13;57.36;102713.25;5058937;28;45609;-82
2023/01/22 04:01:30;;;;;;;;;40.25;39.75;;;;;3.11;57.44;102715.84;5052491;28;46305;-83
2023/01/22 04:03:55;;;;;;;;;45.00;41.00;;;;;3.08;58.22;102710.47;5057812;28;45296;-82
2023/01/22 04:06:22;;;;;;;;;36.00;33.25;;;;;2.96;59.06;102678.44;5045617;28;45209;-82
2023/01/22 04:08:50;;;;;;;;;46.75;41.00;;;;;3.08;58.83;102691.13;5055577;28;45441;-82
2023/01/22 04:11:16;;;;;;;;;43.75;36.00;;;;;3.10;58.60;102685.00;5045478;28;45414;-82
2023/01/22 04:13:42;;;;;;;;;44.25;35.00;;;;;3.17;58.89;102694.00;5046015;28;45456;-82
2023/01/22 04:16:09;;;;;;;;;50.75;37.00;;;;;3.18;57.99;102679.09;5044828;28;45501;-82
2023/01/22 04:18:35;;;;;;;;;40.50;31.75;;;;;3.43;58.00;102720.28;5063661;28;45664;-82
2023/01/22 04:21:00;;;;;;;;;45.00;40.50;;;;;3.54;58.20;102750.50;5052250;28;46414;-82
2023/01/22 04:23:26;;;;;;;;;42.75;35.00;;;;;3.46;58.48;102741.50;5053192;28;45468;-82
2023/01/22 04:25:52;;;;;;;;;41.75;36.00;;;;;3.00;57.66;102660.97;5060241;28;45248;-82
2023/01/22 04:28:18;;;;;;;;;40.25;34.50;;;;;3.44;58.25;102735.25;5061505;28;45440;-82
2023/01/22 04:30:45;;;;;;;;;36.50;32.50;;;;;3.26;57.69;102703.97;5041667;28;47836;-82
2023/01/22 04:33:11;;;;;;;;;48.00;38.00;;;;;3.04;58.26;102663.75;5041566;28;45848;-82
2023/01/22 04:35:37;;;;;;;;;37.00;30.50;;;;;3.10;57.74;102668.31;5053722;28;45407;-82
2023/01/22 04:38:04;;;;;;;;;36.75;30.25;;;;;3.42;58.00;102744.88;5060171;28;45651;-82
2023/01/22 04:40:30;;;;;;;;;31.25;26.00;;;;;3.40;58.09;102741.31;5047304;28;45424;-82
2023/01/22 04:43:00;;;;;;;;;43.00;35.25;;;;;3.10;57.77;102697.31;5061391;28;45339;-82
2023/01/22 04:45:25;;;;;;;;;36.00;28.75;;;;;2.89;58.17;102677.38;5054150;28;45413;-82
2023/01/22 04:47:50;;;;;;;;;40.50;32.00;;;;;2.87;58.16;102660.56;5060466;28;45457;-82
2023/01/22 04:50:18;;;;;;;;;40.75;31.25;;;;;3.19;57.96;102704.59;5045844;28;47154;-82
2023/01/22 04:52:44;;;;;;;;;36.25;27.25;;;;;3.10;58.07;102676.22;5059957;28;46122;-82
2023/01/22 04:55:10;;;;;;;;;25.50;21.50;;;;;3.17;58.37;102672.91;5046490;28;45893;-82
2023/01/22 04:57:36;;;;;;;;;36.00;30.00;;;;;3.21;57.89;102687.06;5057543;28;45370;-82
2023/01/22 05:00:03;;;;;;;;;36.25;33.25;;;;;3.08;57.99;102654.16;5073460;28;46399;-82
2023/01/22 05:02:28;;;;;;;;;34.50;26.50;;;;;3.29;57.91;102702.31;5048450;28;45786;-82
2023/01/22 05:04:54;;;;;;;;;35.25;27.50;;;;;3.18;58.16;102679.97;5049303;28;45335;-82
2023/01/22 05:07:19;;;;;;;;;31.75;25.25;;;;;3.31;57.67;102707.63;5047930;28;45420;-82
2023/01/22 05:09:45;;;;;;;;;35.25;30.25;;;;;3.26;57.87;102683.72;5041858;28;45985;-82
2023/01/22 05:12:10;;;;;;;;;33.25;28.00;;;;;3.40;58.21;102707.88;5059583;28;45370;-82
2023/01/22 05:14:36;;;;;;;;;35.00;28.00;;;;;3.23;58.07;102675.72;5046560;28;45349;-82
2023/01/22 05:17:01;;;;;;;;;35.25;27.75;;;;;3.26;57.88;102672.28;5066668;28;45349;-82
2023/01/22 05:19:27;;;;;;;;;31.00;25.50;;;;;3.43;58.36;102688.59;5041569;28;46292;-82
2023/01/22 05:21:52;;;;;;;;;33.25;29.75;;;;;3.41;58.43;102680.63;5050004;28;45284;-82
2023/01/22 05:24:17;;;;;;;;;26.50;25.50;;;;;3.53;58.17;102701.22;5058966;28;45516;-82
2023/01/22 05:26:43;;;;;;;;;31.00;27.25;;;;;3.48;57.78;102671.16;5046542;28;45282;-82
2023/01/22 05:29:09;;;;;;;;;26.25;19.50;;;;;3.42;58.26;102653.38;5048531;28;45528;-82
2023/01/22 05:31:35;;;;;;;;;38.25;28.00;;;;;3.34;57.67;102654.91;5060315;28;45755;-82
2023/01/22 05:34:00;;;;;;;;;26.75;24.50;;;;;3.29;58.08;102636.31;5040899;28;45259;-83
2023/01/22 05:36:26;;;;;;;;;26.00;20.50;;;;;3.41;58.01;102659.53;5060202;28;45384;-82
2023/01/22 05:38:52;;;;;;;;;27.25;24.25;;;;;3.38;58.31;102642.72;5060274;28;47551;-82
2023/01/22 05:41:17;;;;;;;;;29.50;27.25;;;;;3.45;57.33;102663.13;5057431;28;45333;-82
2023/01/22 05:43:42;;;;;;;;;31.25;26.25;;;;;3.43;57.64;102665.72;5061929;28;45323;-82
2023/01/22 05:46:08;;;;;;;;;29.75;27.00;;;;;3.61;58.27;102704.97;5057064;28;45479;-82
2023/01/22 05:48:33;;;;;;;;;33.50;25.25;;;;;3.24;58.03;102629.09;5048621;28;47731;-82
2023/01/22 05:51:04;;;;;;;;;28.50;22.25;;;;;3.48;57.97;102672.03;5054160;28;45877;-82
2023/01/22 05:53:29;;;;;;;;;34.50;26.25;;;;;3.68;58.49;102700.75;5056604;28;45409;-82
2023/01/22 05:56:00;;;;;;;;;36.00;29.75;;;;;3.32;58.03;102630.22;5046203;28;45508;-82
2023/01/22 05:58:25;;;;;;;;;25.75;24.75;;;;;3.28;58.00;102631.88;5060970;28;46026;-82
2023/01/22 06:00:52;;;;;;;;;27.75;22.00;;;;;3.48;58.03;102660.59;5053959;28;45369;-82
2023/01/22 06:03:17;;;;;;;;;29.75;26.50;;;;;3.60;58.34;102675.88;5054674;28;45370;-82
2023/01/22 06:05:42;;;;;;;;;30.00;24.25;;;;;3.59;58.10;102677.63;5041682;28;45282;-82
2023/01/22 06:08:08;;;;;;;;;34.00;33.50;;;;;3.54;58.15;102671.28;5044697;28;45433;-82
2023/01/22 06:10:33;;;;;;;;;32.75;28.75;;;;;3.63;58.35;102686.53;5047994;28;45370;-82
2023/01/22 06:12:59;;;;;;;;;28.25;23.50;;;;;3.69;58.39;102691.94;5040044;28;45739;-82
2023/01/22 06:15:24;;;;;;;;;42.25;24.50;;;;;3.67;58.34;102691.91;5039456;28;45367;-82
2023/01/22 06:17:49;;;;;;;;;31.25;28.00;;;;;3.54;58.15;102681.84;5064029;28;46124;-82
2023/01/22 06:20:15;;;;;;;;;32.75;27.75;;;;;3.36;58.18;102658.50;5052621;28;45621;-82
2023/01/22 06:22:40;;;;;;;;;25.50;21.00;;;;;3.64;58.28;102685.66;5059869;28;45229;-83
2023/01/22 06:25:08;;;;;;;;;31.50;27.50;;;;;3.55;58.60;102664.28;5047672;28;45804;-82
2023/01/22 06:27:33;;;;;;;;;32.75;27.50;;;;;3.65;58.03;102683.06;5059480;28;48109;-82
2023/01/22 06:29:59;;;;;;;;;30.50;25.25;;;;;3.79;58.80;102701.03;5046483;28;45491;-82
2023/01/22 06:32:24;;;;;;;;;32.25;27.75;;;;;3.57;58.33;102655.53;5049788;28;45363;-82
2023/01/22 06:34:50;;;;;;;;;34.50;29.50;;;;;3.86;58.72;102695.97;5065573;28;45417;-82
2023/01/22 06:37:15;;;;;;;;;37.25;31.50;;;;;3.72;58.12;102676.19;5041973;28;45464;-83
2023/01/22 06:39:41;;;;;;;;;33.75;28.25;;;;;3.78;58.17;102680.75;5052040;28;45534;-82
2023/01/22 06:42:06;;;;;;;;;32.75;31.00;;;;;3.79;58.06;102696.66;5051841;28;45282;-83
2023/01/22 06:44:31;;;;;;;;;30.50;28.25;;;;;3.80;58.52;102713.41;5051314;28;45437;-83
2023/01/22 06:46:57;;;;;;;;;28.00;27.00;;;;;3.76;58.28;102690.38;5041523;28;45497;-82
2023/01/22 06:49:22;;;;;;;;;29.75;27.25;;;;;3.68;58.70;102671.69;5054276;28;45307;-82
2023/01/22 06:51:47;;;;;;;;;30.25;28.25;;;;;3.89;58.80;102706.63;5046525;28;45329;-82
2023/01/22 06:54:13;;;;;;;;;39.25;33.50;;;;;3.85;58.14;102695.91;5053885;28;45526;-82
2023/01/22 06:56:38;;;;;;;;;37.00;32.00;;;;;3.96;58.40;102712.97;5040032;28;46029;-83
2023/01/22 06:59:03;;;;;;;;;40.75;34.50;;;;;3.87;59.00;102710.06;5042329;28;45274;-83
2023/01/22 07:01:29;;;;;;;;;34.75;29.00;;;;;3.80;58.58;102706.34;5056825;28;45485;-83
2023/01/22 07:03:55;;;;;;;;;34.00;29.75;;;;;3.79;58.57;102698.38;5048822;28;45552;-80
2023/01/22 07:06:20;;;;;;;;;23.25;20.50;;;;;3.76;59.31;102695.66;5058818;28;46074;-80
2023/01/22 07:08:45;;;;;;;;;40.50;33.50;;;;;3.97;58.91;102721.78;5059257;28;45207;-80
2023/01/22 07:11:13;;;;;;;;;30.25;28.25;;;;;3.93;58.14;102722.56;5048926;28;45544;-80
2023/01/22 07:13:38;;;;;;;;;37.25;27.75;;;;;3.92;58.68;102728.69;5058446;28;45252;-80
2023/01/22 07:16:04;;;;;;;;;33.25;26.75;;;;;3.90;58.96;102734.81;5054094;28;47384;-80
2023/01/22 07:18:30;;;;;;;;;25.00;22.50;;;;;3.86;59.07;102718.84;5056734;28;45471;-80
2023/01/22 07:21:02;;;;;;;;;40.00;31.50;;;;;4.00;58.58;102743.00;5064942;28;45414;-80
2023/01/22 07:23:29;;;;;;;;;32.25;25.00;;;;;3.94;59.46;102730.50;5050176;28;46230;-80
2023/01/22 07:25:54;;;;;;;;;30.25;28.00;;;;;3.97;58.98;102720.00;5058496;28;45507;-80
2023/01/22 07:28:20;;;;;;;;;33.75;28.25;;;;;4.07;59.02;102759.03;5055631;28;45842;-80
2023/01/22 07:30:45;;;;;;;;;30.75;21.50;;;;;3.99;58.57;102739.47;5042397;28;45272;-80
2023/01/22 07:33:11;;;;;;;;;30.50;26.00;;;;;3.97;58.74;102746.44;5052206;28;45452;-80
2023/01/22 07:35:38;;;;;;;;;34.75;27.50;;;;;3.93;58.76;102755.16;5045992;28;47153;-80
2023/01/22 07:38:03;;;;;;;;;28.50;23.75;;;;;4.00;59.47;102767.66;5057325;28;45943;-80
2023/01/22 07:40:28;;;;;;;;;31.50;30.25;;;;;3.88;59.64;102752.38;5052479;28;45474;-80
2023/01/22 07:42:55;;;;;;;;;28.00;16.75;;;;;3.89;59.36;102751.53;5051140;28;45528;-80
2023/01/22 07:45:23;;;;;;;;;27.00;22.75;;;;;3.91;59.14;102759.50;5049492;28;47026;-80
2023/01/22 07:47:57;;;;;;;;;33.75;26.00;;;;;3.95;59.87;102755.19;5051349;28;45681;-80
2023/01/22 07:50:28;;;;;;;;;34.50;28.25;;;;;4.04;59.39;102766.00;5042938;28;45347;-80
2023/01/22 07:52:54;;;;;;;;;35.25;29.25;;;;;4.08;59.07;102770.53;5040833;28;45354;-80
2023/01/22 07:55:20;;;;;;;;;30.25;29.25;;;;;4.05;58.55;102773.09;5045293;28;45410;-80
2023/01/22 07:57:45;;;;;;;;;31.00;26.75;;;;;4.00;59.00;102774.72;5047389;28;45853;-80
2023/01/22 08:00:11;;;;;;;;;30.25;29.75;;;;;3.95;59.32;102756.06;5070927;28;45249;-80
2023/01/22 08:02:38;;;;;;;;;18.00;9.25;;;;;3.92;59.76;102779.78;5058120;28;45322;-80
2023/01/22 08:05:04;;;;;;;;;26.00;16.00;;;;;3.60;59.43;102742.78;5062575;28;45471;-80
2023/01/22 08:07:36;;;;;;;;;27.50;24.50;;;;;3.65;58.80;102767.56;5044352;28;45337;-80
2023/01/22 08:10:01;;;;;;;;;30.25;28.75;;;;;3.74;59.30;102784.53;5039229;28;45508;-80
2023/01/22 08:12:27;;;;;;;;;27.25;24.00;;;;;3.68;59.77;102774.69;5050331;28;45210;-80
2023/01/22 08:14:52;;;;;;;;;39.25;29.00;;;;;3.67;59.83;102759.69;5037444;28;48320;-79
2023/01/22 08:17:18;;;;;;;;;35.25;31.50;;;;;3.82;60.60;102777.72;5055726;28;45298;-80
2023/01/22 08:19:43;;;;;;;;;34.50;30.50;;;;;3.84;59.84;102783.94;5043815;28;45296;-80
2023/01/22 08:22:08;;;;;;;;;29.50;24.25;;;;;3.88;60.46;102775.25;5056663;28;45425;-77
2023/01/22 08:24:34;;;;;;;;;32.75;28.00;;;;;3.97;60.23;102795.75;5053222;28;46233;-79
2023/01/22 08:27:00;;;;;;;;;30.75;29.25;;;;;3.90;60.26;102769.16;5057749;28;45200;-79
2023/01/22 08:29:25;;;;;;;;;33.00;29.50;;;;;3.91;60.15;102793.84;5044312;28;45436;-79
2023/01/22 08:31:52;;;;;;;;;34.25;29.00;;;;;3.92;60.01;102781.53;5046624;28;45520;-79
2023/01/22 08:34:18;;;;;;;;;35.00;29.25;;;;;3.90;59.89;102790.28;5048656;28;45406;-79
2023/01/22 08:36:43;;;;;;;;;36.00;31.25;;;;;3.97;59.91;102808.97;5063156;28;46106;-79
2023/01/22 08:39:09;;;;;;;;;36.00;30.25;;;;;3.84;59.45;102790.13;5047500;28;45433;-79
2023/01/22 08:41:35;;;;;;;;;32.00;29.00;;;;;3.87;59.44;102791.97;5056876;28;45445;-79
2023/01/22 08:44:00;;;;;;;;;28.00;27.25;;;;;3.80;59.72;102780.31;5040807;28;46237;-79
2023/01/22 08:46:26;;;;;;;;;35.75;29.25;;;;;3.88;60.10;102788.47;5043056;28;45274;-79
2023/01/22 08:48:51;;;;;;;;;35.25;31.00;;;;;3.91;60.11;102801.78;5042849;28;45331;-79
2023/01/22 08:51:17;;;;;;;;;36.00;28.50;;;;;3.80;59.23;102790.88;5047198;28;45472;-79
2023/01/22 08:53:42;;;;;;;;;25.25;19.25;;;;;3.90;59.63;102807.91;5054170;28;45530;-79
2023/01/22 08:56:07;;;;;;;;;28.50;25.75;;;;;3.82;59.36;102788.28;5048176;28;45508;-79
2023/01/22 08:58:33;;;;;;;;;27.00;23.25;;;;;3.92;60.14;102802.66;5051806;28;45450;-79
2023/01/22 09:00:58;;;;;;;;;35.00;24.25;;;;;3.87;60.22;102799.88;5037129;28;45295;-79
2023/01/22 09:03:24;;;;;;;;;27.00;25.25;;;;;4.02;60.03;102823.22;5049860;28;47627;-79
2023/01/22 09:05:49;;;;;;;;;32.50;24.75;;;;;4.03;59.05;102819.72;5051528;28;46061;-79
2023/01/22 09:08:15;;;;;;;;;38.00;29.00;;;;;4.04;60.39;102817.13;5049927;28;45244;-81
2023/01/22 09:10:41;;;;;;;;;19.25;18.25;;;;;3.92;59.61;102803.56;5043463;28;45242;-82
2023/01/22 09:13:07;;;;;;;;;32.25;27.75;;;;;4.01;59.35;102816.13;5051158;28;45372;-82
2023/01/22 09:15:32;;;;;;;;;29.25;27.00;;;;;4.00;59.49;102809.94;5052830;28;45527;-82
2023/01/22 09:17:59;;;;;;;;;29.75;27.25;;;;;3.89;60.33;102804.38;5061653;28;45506;-82
2023/01/22 09:20:24;;;;;;;;;22.25;22.25;;;;;3.89;60.12;102798.16;5056323;28;45468;-82
2023/01/22 09:22:50;;;;;;;;;27.25;23.75;;;;;3.97;60.00;102801.94;5053095;28;45529;-82
2023/01/22 09:25:15;;;;;;;;;29.50;26.50;;;;;3.94;60.14;102796.56;5047746;28;45481;-81
2023/01/22 09:27:41;;;;;;;;;27.75;22.00;;;;;3.99;59.82;102802.91;5041150;28;45248;-81
2023/01/22 09:30:08;;;;;;;;;28.75;24.75;;;;;4.06;59.81;102804.84;5053091;28;45196;-81
2023/01/22 09:32:34;;;;;;;;;28.50;26.00;;;;;4.08;60.76;102807.53;5054466;28;47262;-81
2023/01/22 09:34:59;;;;;;;;;30.00;29.25;;;;;3.95;59.38;102777.22;5063860;28;45199;-81
2023/01/22 09:37:25;;;;;;;;;37.00;27.25;;;;;4.10;60.16;102802.28;5064808;27;45789;-79
2023/01/22 09:39:51;;;;;;;;;37.50;25.00;;;;;4.16;59.63;102816.56;5050771;28;45425;-79
2023/01/22 09:42:23;;;;;;;;;36.00;29.00;;;;;4.17;59.80;102825.38;5057897;28;45424;-78
2023/01/22 09:44:54;;;;;;;;;30.50;25.50;;;;;4.08;59.52;102829.56;5051690;28;45999;-78
2023/01/22 09:47:25;;;;;;;;;25.75;24.75;;;;;4.12;60.64;102835.81;5058267;28;45332;-79
2023/01/22 09:50:19;;;;;;;;;29.75;27.00;;;;;4.04;59.51;102817.13;5056639;28;45476;-79
2023/01/22 09:52:48;;;;;;;;;34.75;30.75;;;;;4.15;60.10;102835.03;5054377;28;45664;-79
2023/01/22 09:55:19;;;;;;;;;27.25;24.25;;;;;4.11;60.05;102833.13;5045467;28;45329;-80
2023/01/22 09:57:48;;;;;;;;;29.00;24.00;;;;;4.11;60.40;102835.78;5047284;28;45402;-78
2023/01/22 10:00:20;;;;;;;;;35.50;27.75;;;;;4.14;59.09;102841.16;5049235;28;45432;-77
2023/01/22 10:03:00;;;;;;;;;16.50;12.75;;;;;4.07;59.57;102835.69;5063192;28;47213;-78
2023/01/22 10:05:36;;;;;;;;;24.00;20.50;;;;;4.08;59.74;102844.53;5041351;28;45208;-78
2023/01/22 10:08:05;;;;;;;;;28.50;23.50;;;;;4.05;59.50;102833.88;5052410;28;45496;-79
2023/01/22 10:10:32;;;;;;;;;27.00;24.00;;;;;4.05;59.68;102836.50;5040947;28;45424;-79
2023/01/22 10:13:12;;;;;;;;;30.25;25.25;;;;;4.03;59.74;102840.88;5042065;28;45531;-78
2023/01/22 10:15:38;;;;;;;;;32.25;29.00;;;;;4.00;60.30;102846.06;5046591;28;45936;-79
2023/01/22 10:18:15;;;;;;;;;24.75;22.00;;;;;3.97;60.08;102851.25;5065750;28;45345;-79
2023/01/22 10:20:42;;;;;;;;;29.00;26.00;;;;;3.92;60.14;102845.81;5054504;28;45776;-78
2023/01/22 10:23:16;;;;;;;;;30.00;26.75;;;;;3.84;60.26;102818.28;5060848;28;46312;-78
2023/01/22 10:25:41;;;;;;;;;23.75;23.50;;;;;3.88;60.34;102810.50;5041236;28;45445;-79
2023/01/22 10:28:07;;;;;;;;;28.25;25.25;;;;;3.95;60.31;102822.13;5050466;28;45442;-81
2023/01/22 10:30:34;;;;;;;;;32.25;25.00;;;;;3.96;60.12;102813.38;5052117;28;45371;-81
2023/01/22 10:33:02;;;;;;;;;26.75;23.25;;;;;3.95;60.20;102811.56;5054911;28;45608;-82
2023/01/22 10:35:29;;;;;;;;;30.75;25.50;;;;;3.87;60.08;102805.16;5047479;28;45400;-79
2023/01/22 10:37:55;;;;;;;;;31.25;25.25;;;;;3.84;60.41;102813.00;5042038;28;45487;-79
2023/01/22 10:40:26;;;;;;;;;23.00;23.00;;;;;3.92;60.31;102827.34;5050922;28;46107;-79
2023/01/22 10:43:11;;;;;;;;;25.00;22.00;;;;;4.00;60.81;102840.78;5047851;28;47939;-79
2023/01/22 10:45:38;;;;;;;;;32.00;23.50;;;;;3.96;60.76;102823.94;5055857;28;45767;-79
2023/01/22 10:48:04;;;;;;;;;26.75;22.00;;;;;4.07;59.94;102824.22;5040593;28;45225;-79
2023/01/22 10:50:29;;;;;;;;;28.25;25.00;;;;;4.05;61.10;102804.78;5052476;28;45589;-79
2023/01/22 10:52:56;;;;;;;;;28.00;20.00;;;;;4.04;60.72;102808.28;5052464;28;45261;-79
2023/01/22 10:55:29;;;;;;;;;34.00;24.50;;;;;4.12;60.51;102814.69;5049526;28;45321;-79
2023/01/22 10:58:01;;;;;;;;;22.00;22.00;;;;;4.01;60.17;102803.81;5058031;28;45285;-79
2023/01/22 11:00:33;;;;;;;;;27.50;24.50;;;;;3.99;60.26;102799.34;5051026;28;45385;-79
2023/01/22 11:02:58;;;;;;;;;23.75;17.50;;;;;4.18;60.36;102824.53;5053329;28;45375;-79
2023/01/22 11:05:28;;;;;;;;;25.50;22.00;;;;;4.18;59.95;102817.50;5047486;28;45522;-79
2023/01/22 11:08:02;;;;;;;;;29.00;23.75;;;;;4.22;60.50;102814.06;5045854;28;45744;-79
2023/01/22 11:10:39;;;;;;;;;20.75;20.00;;;;;4.26;59.90;102809.78;5049397;28;45382;-79
2023/01/22 11:13:36;;;;;;;;;22.00;16.50;;;;;4.17;60.21;102809.53;5058563;28;48205;-79
2023/01/22 11:16:12;;;;;;;;;24.25;18.50;;;;;4.08;60.54;102803.13;5037354;28;45496;-79
2023/01/22 11:18:41;;;;;;;;;23.00;20.75;;;;;3.94;59.90;102775.41;5057820;28;45360;-79
2023/01/22 11:21:17;;;;;;;;;19.25;17.00;;;;;4.03;60.98;102794.19;5039449;28;45431;-79
2023/01/22 11:23:42;;;;;;;;;19.00;17.75;;;;;4.12;60.61;102808.50;5047548;28;47524;-79